Time;durP1;ratioP1;P1;durP2;ratioP2;P2;SDS_P1;SDS_P2;PMS_P1;PMS_P2;Temp;Humidity;BMP_temperature;BMP_pressure;BME280_temperature;BME280_humidity;BME280_pressure;Samples;Min_cycle;Max_cycle;Signal;HPM_P1;HPM_P2
2022/03/04 00:00:43;;;;;;;7.40;4.90;;;5.40;72.10;;;;;;5081168;28;20190;-72
2022/03/04 00:03:11;;;;;;;5.57;4.43;;;5.30;72.30;;;;;;5115368;28;20176;-73
2022/03/04 00:05:42;;;;;;;7.33;4.60;;;5.30;72.50;;;;;;5078569;28;20204;-71
2022/03/04 00:08:10;;;;;;;8.83;4.50;;;5.30;72.70;;;;;;5112244;27;20247;-73
2022/03/04 00:10:39;;;;;;;6.10;4.33;;;5.30;72.80;;;;;;5081740;28;20180;-70
2022/03/04 00:13:05;;;;;;;6.10;4.27;;;5.30;73.00;;;;;;5100178;28;20206;-71
2022/03/04 00:15:34;;;;;;;6.20;4.47;;;5.30;73.00;;;;;;5104107;27;20210;-73
2022/03/04 00:18:00;;;;;;;5.67;4.33;;;5.30;73.30;;;;;;5109394;27;20184;-73
2022/03/04 00:20:28;;;;;;;6.13;4.80;;;5.30;73.50;;;;;;5105350;27;20231;-69
2022/03/04 00:22:56;;;;;;;5.77;3.87;;;5.30;73.60;;;;;;5104763;27;20206;-72
2022/03/04 00:25:22;;;;;;;6.60;4.37;;;5.30;73.90;;;;;;5077119;28;20321;-72
2022/03/04 00:27:48;;;;;;;6.67;4.60;;;5.30;73.90;;;;;;5077899;28;20196;-72
2022/03/04 00:30:19;;;;;;;5.70;4.40;;;5.20;74.10;;;;;;5116104;27;20194;-70
2022/03/04 00:32:44;;;;;;;5.87;4.53;;;5.20;74.90;;;;;;5074009;28;20186;-70
2022/03/04 00:35:13;;;;;;;5.70;4.07;;;5.20;74.40;;;;;;5079610;28;20213;-72
2022/03/04 00:37:40;;;;;;;5.37;4.30;;;5.20;74.80;;;;;;5080178;28;20211;-72
2022/03/04 00:40:10;;;;;;;6.90;4.70;;;5.10;74.80;;;;;;5080376;28;20203;-69
2022/03/04 00:42:36;;;;;;;6.67;4.43;;;5.20;75.20;;;;;;5111898;27;20206;-72
2022/03/04 00:45:02;;;;;;;6.27;4.50;;;5.10;75.30;;;;;;5115242;27;20183;-70
2022/03/04 00:47:28;;;;;;;5.47;4.27;;;5.10;75.40;;;;;;5117447;27;20187;-72
2022/03/04 00:49:56;;;;;;;6.17;4.57;;;5.10;75.70;;;;;;5116451;27;20189;-72
2022/03/04 00:52:26;;;;;;;6.70;4.67;;;5.10;76.00;;;;;;5083253;28;20239;-72
2022/03/04 00:54:52;;;;;;;6.03;4.53;;;5.10;76.40;;;;;;5085239;28;20180;-73
2022/03/04 00:57:20;;;;;;;6.33;4.60;;;5.00;76.50;;;;;;5088887;28;20167;-73
2022/03/04 00:59:45;;;;;;;7.57;4.67;;;5.00;76.70;;;;;;5087142;28;20247;-72
2022/03/04 01:02:11;;;;;;;7.80;4.67;;;5.00;76.90;;;;;;5086447;28;20210;-74
2022/03/04 01:04:37;;;;;;;6.20;4.30;;;5.00;76.90;;;;;;5073964;28;20211;-72
2022/03/04 01:07:03;;;;;;;6.37;4.87;;;4.90;77.00;;;;;;5107095;28;20191;-73
2022/03/04 01:09:30;;;;;;;6.03;4.30;;;4.90;77.30;;;;;;5079532;28;20213;-73
2022/03/04 01:11:56;;;;;;;7.33;4.93;;;4.80;77.60;;;;;;5103089;28;20229;-73
2022/03/04 01:14:22;;;;;;;6.27;4.40;;;4.80;78.00;;;;;;5093400;28;20195;-73
2022/03/04 01:16:50;;;;;;;6.47;4.60;;;4.70;78.10;;;;;;5079980;28;20228;-73
2022/03/04 01:19:15;;;;;;;6.37;4.90;;;4.70;78.20;;;;;;5081554;28;20248;-73
2022/03/04 01:21:41;;;;;;;6.70;4.60;;;4.60;78.20;;;;;;5079638;28;20199;-71
2022/03/04 01:24:10;;;;;;;6.37;4.53;;;4.60;78.40;;;;;;5096813;28;20263;-73
2022/03/04 01:26:36;;;;;;;6.47;5.00;;;4.60;78.70;;;;;;5080779;28;20267;-69
2022/03/04 01:29:02;;;;;;;7.07;4.93;;;4.50;78.90;;;;;;5090164;28;20231;-73
2022/03/04 01:31:30;;;;;;;6.87;4.70;;;4.50;79.30;;;;;;5066928;28;20230;-68
2022/03/04 01:33:56;;;;;;;7.03;4.73;;;4.40;79.40;;;;;;5098794;28;20192;-73
2022/03/04 01:36:23;;;;;;;6.67;4.70;;;4.40;79.80;;;;;;5070903;28;20302;-74
2022/03/04 01:38:49;;;;;;;6.23;4.60;;;4.30;80.70;;;;;;5107205;28;20203;-70
2022/03/04 01:41:15;;;;;;;7.20;4.70;;;4.30;80.40;;;;;;5111047;28;20195;-71
2022/03/04 01:43:40;;;;;;;6.67;4.70;;;4.20;80.70;;;;;;5078162;28;20342;-73
2022/03/04 01:46:18;;;;;;;5.87;4.43;;;4.20;81.00;;;;;;5103749;28;20176;-72
2022/03/04 01:48:47;;;;;;;5.97;4.33;;;4.20;82.00;;;;;;5101673;28;20219;-72
2022/03/04 01:51:14;;;;;;;6.63;4.47;;;4.20;81.80;;;;;;5074722;28;20179;-71
2022/03/04 01:53:42;;;;;;;6.67;4.90;;;4.20;82.00;;;;;;5095791;28;20255;-70
2022/03/04 01:56:09;;;;;;;8.03;5.00;;;4.10;82.20;;;;;;5073674;28;20207;-73
2022/03/04 01:58:34;;;;;;;6.80;4.67;;;4.10;82.70;;;;;;5118835;28;20264;-72
2022/03/04 02:01:00;;;;;;;6.37;4.37;;;4.10;83.00;;;;;;5104367;27;20180;-72
2022/03/04 02:03:26;;;;;;;7.40;4.90;;;4.10;83.40;;;;;;5122077;27;20171;-73
2022/03/04 02:05:54;;;;;;;6.67;4.53;;;4.10;83.70;;;;;;5082288;28;20176;-73
2022/03/04 02:08:22;;;;;;;7.73;4.83;;;4.10;84.00;;;;;;5124746;27;20167;-73
2022/03/04 02:10:50;;;;;;;6.80;4.63;;;4.10;84.40;;;;;;5076223;28;20249;-72
2022/03/04 02:13:16;;;;;;;6.30;4.57;;;4.00;84.80;;;;;;5080452;28;20255;-71
2022/03/04 02:15:43;;;;;;;7.97;5.20;;;4.00;84.80;;;;;;5101301;27;20228;-73
2022/03/04 02:18:17;;;;;;;9.60;5.60;;;3.90;85.30;;;;;;5080782;28;20176;-73
2022/03/04 02:20:49;;;;;;;7.83;4.87;;;3.90;86.10;;;;;;5082644;28;20184;-73
2022/03/04 02:23:16;;;;;;;7.50;4.87;;;3.80;85.80;;;;;;5097361;28;20299;-70
2022/03/04 02:25:47;;;;;;;6.87;4.90;;;3.80;85.90;;;;;;5113073;28;20208;-73
2022/03/04 02:28:13;;;;;;;5.60;4.47;;;3.70;86.40;;;;;;5108543;28;20184;-73
2022/03/04 02:30:40;;;;;;;7.10;4.83;;;3.70;86.30;;;;;;5090111;28;20283;-73
2022/03/04 02:33:11;;;;;;;7.10;5.10;;;3.60;86.70;;;;;;5112271;27;20195;-73
2022/03/04 02:35:39;;;;;;;10.43;5.13;;;3.60;87.70;;;;;;5105330;27;20188;-73
2022/03/04 02:38:04;;;;;;;7.60;4.50;;;3.50;87.70;;;;;;5079721;28;20252;-72
2022/03/04 02:40:30;;;;;;;6.97;4.70;;;3.50;88.10;;;;;;5079670;28;20302;-74
2022/03/04 02:42:56;;;;;;;6.40;4.63;;;3.40;88.30;;;;;;5109722;27;20243;-70
2022/03/04 02:45:27;;;;;;;5.80;4.77;;;3.40;88.70;;;;;;5109637;28;20254;-73
2022/03/04 02:47:53;;;;;;;8.20;5.13;;;3.40;89.40;;;;;;5107307;28;20180;-72
2022/03/04 02:50:19;;;;;;;6.10;4.87;;;3.30;90.00;;;;;;5071263;28;20176;-73
2022/03/04 02:52:44;;;;;;;7.47;5.00;;;3.30;90.20;;;;;;5090937;28;20208;-72
2022/03/04 02:55:11;;;;;;;6.73;4.93;;;3.20;90.70;;;;;;5094420;28;20186;-74
2022/03/04 02:57:43;;;;;;;8.57;5.00;;;3.20;91.00;;;;;;5082076;28;20194;-73
2022/03/04 03:00:09;;;;;;;6.77;4.93;;;3.20;91.90;;;;;;5106733;27;20208;-73
2022/03/04 03:02:37;;;;;;;6.13;4.80;;;3.20;91.90;;;;;;5109693;27;20181;-72
2022/03/04 03:05:03;;;;;;;7.33;5.43;;;3.20;92.10;;;;;;5072974;28;20185;-72
2022/03/04 03:07:32;;;;;;;7.43;5.10;;;3.20;92.30;;;;;;5076920;28;20272;-69
2022/03/04 03:10:02;;;;;;;7.17;5.03;;;3.20;92.80;;;;;;5109388;27;20185;-73
2022/03/04 03:12:27;;;;;;;8.10;5.10;;;3.20;92.80;;;;;;5090393;28;20322;-70
2022/03/04 03:14:53;;;;;;;7.00;5.20;;;3.20;93.00;;;;;;5089750;28;20213;-72
2022/03/04 03:17:21;;;;;;;7.63;5.20;;;3.20;93.00;;;;;;5074118;28;20176;-73
2022/03/04 03:19:47;;;;;;;6.37;4.80;;;3.20;93.20;;;;;;5112689;27;20203;-72
2022/03/04 03:22:18;;;;;;;6.73;4.93;;;3.10;93.30;;;;;;5077283;28;20221;-72
2022/03/04 03:24:46;;;;;;;6.73;5.10;;;3.10;93.70;;;;;;5121359;27;20176;-73
2022/03/04 03:27:12;;;;;;;7.03;5.13;;;3.10;93.70;;;;;;5106396;27;20179;-72
2022/03/04 03:29:38;;;;;;;6.87;4.73;;;3.10;93.80;;;;;;5071488;28;20184;-73
2022/03/04 03:32:04;;;;;;;9.33;4.97;;;3.00;93.90;;;;;;5078490;28;20196;-71
2022/03/04 03:34:29;;;;;;;8.00;4.93;;;3.00;94.00;;;;;;5111464;27;20190;-72
2022/03/04 03:36:55;;;;;;;7.33;4.43;;;3.00;94.40;;;;;;5077823;28;20275;-73
2022/03/04 03:39:21;;;;;;;5.73;4.17;;;3.00;94.40;;;;;;5078471;28;20316;-73
2022/03/04 03:41:46;;;;;;;6.27;4.53;;;2.90;94.50;;;;;;5114239;27;20188;-73
2022/03/04 03:44:12;;;;;;;6.10;4.33;;;2.90;94.60;;;;;;5080590;28;20198;-73
2022/03/04 03:46:38;;;;;;;6.43;4.60;;;2.90;95.00;;;;;;5102095;28;20212;-72
2022/03/04 03:49:03;;;;;;;5.93;4.37;;;2.90;94.90;;;;;;5082080;28;20187;-70
2022/03/04 03:51:34;;;;;;;6.43;4.83;;;2.90;95.20;;;;;;5085065;28;20188;-73
2022/03/04 03:54:02;;;;;;;7.70;5.17;;;2.90;95.70;;;;;;5077762;28;20176;-72
2022/03/04 03:56:28;;;;;;;6.43;5.00;;;2.90;95.70;;;;;;5108169;27;20179;-72
2022/03/04 03:58:58;;;;;;;5.40;4.23;;;2.90;95.90;;;;;;5109191;28;21837;-73
2022/03/04 04:01:24;;;;;;;5.97;4.87;;;2.80;95.90;;;;;;5083518;28;20168;-73
2022/03/04 04:03:54;;;;;;;6.63;4.47;;;2.80;96.30;;;;;;5080109;28;20260;-71
2022/03/04 04:06:20;;;;;;;6.27;4.73;;;2.80;96.30;;;;;;5092356;28;20178;-72
2022/03/04 04:08:46;;;;;;;6.00;4.50;;;2.80;96.10;;;;;;5077668;28;20172;-71
2022/03/04 04:11:14;;;;;;;7.23;5.20;;;2.70;96.30;;;;;;5100459;28;20187;-72
2022/03/04 04:13:40;;;;;;;6.50;4.83;;;2.70;96.90;;;;;;5103470;27;20193;-72
2022/03/04 04:16:10;;;;;;;7.13;4.83;;;2.70;96.80;;;;;;5071069;28;20192;-72
2022/03/04 04:18:36;;;;;;;6.83;4.83;;;2.60;97.10;;;;;;5117778;27;20230;-72
2022/03/04 04:21:06;;;;;;;7.07;4.77;;;2.60;97.00;;;;;;5099181;27;20272;-73
2022/03/04 04:23:35;;;;;;;8.37;5.30;;;2.50;97.10;;;;;;5068889;28;20185;-73
2022/03/04 04:26:05;;;;;;;6.37;4.63;;;2.50;97.30;;;;;;5111832;27;20199;-72
2022/03/04 04:28:31;;;;;;;6.33;5.00;;;2.50;97.80;;;;;;5116089;27;20203;-70
2022/03/04 04:30:56;;;;;;;7.40;4.47;;;2.40;97.70;;;;;;5109917;28;20324;-68
2022/03/04 04:33:22;;;;;;;6.20;4.90;;;2.40;97.90;;;;;;5087778;28;20215;-73
2022/03/04 04:35:47;;;;;;;7.63;5.37;;;2.30;97.90;;;;;;5079821;28;20206;-72
2022/03/04 04:38:15;;;;;;;6.67;4.90;;;2.30;98.00;;;;;;5110123;27;20236;-73
2022/03/04 04:40:41;;;;;;;6.20;4.47;;;2.30;98.00;;;;;;5103146;28;20211;-73
2022/03/04 04:43:09;;;;;;;6.37;4.80;;;2.30;98.00;;;;;;5072790;28;20294;-77
2022/03/04 04:45:35;;;;;;;12.23;7.90;;;2.20;98.30;;;;;;5101953;27;20199;-77
2022/03/04 04:48:01;;;;;;;8.57;6.33;;;2.20;98.40;;;;;;5117407;27;20190;-78
2022/03/04 04:50:27;;;;;;;7.43;5.60;;;2.10;98.90;;;;;;5097012;28;20244;-72
2022/03/04 04:52:52;;;;;;;6.80;5.10;;;2.20;98.80;;;;;;5079537;28;20186;-75
2022/03/04 04:55:18;;;;;;;8.67;5.27;;;2.10;98.80;;;;;;5108367;27;20200;-77
2022/03/04 04:57:48;;;;;;;7.47;5.17;;;2.10;98.90;;;;;;5074265;28;20188;-77
2022/03/04 05:00:15;;;;;;;8.93;6.00;;;2.10;99.20;;;;;;5095843;28;20203;-76
2022/03/04 05:02:44;;;;;;;10.60;7.63;;;2.10;99.10;;;;;;5082108;28;20202;-78
2022/03/04 05:05:12;;;;;;;9.80;6.03;;;2.10;99.60;;;;;;5085054;28;20179;-76
2022/03/04 05:07:40;;;;;;;8.30;5.70;;;2.10;99.60;;;;;;5085282;28;20263;-77
2022/03/04 05:10:09;;;;;;;7.77;5.60;;;2.10;99.60;;;;;;5077123;28;20317;-75
2022/03/04 05:12:34;;;;;;;8.23;5.20;;;2.10;99.70;;;;;;5061389;28;20196;-75
2022/03/04 05:15:02;;;;;;;8.10;5.23;;;2.10;99.50;;;;;;5084629;28;20199;-77
2022/03/04 05:17:28;;;;;;;7.83;5.10;;;2.10;99.50;;;;;;5108593;27;20214;-76
2022/03/04 05:19:54;;;;;;;7.70;4.93;;;2.10;99.70;;;;;;5084702;28;20196;-77
2022/03/04 05:22:24;;;;;;;8.40;5.33;;;2.10;99.80;;;;;;5077165;28;20183;-78
2022/03/04 05:24:52;;;;;;;13.53;8.90;;;2.10;99.90;;;;;;5074756;28;20171;-78
2022/03/04 05:27:20;;;;;;;14.40;8.50;;;2.00;99.80;;;;;;5080644;28;20179;-78
2022/03/04 05:29:48;;;;;;;10.10;6.80;;;2.00;99.90;;;;;;5118672;28;20221;-77
2022/03/04 05:32:16;;;;;;;11.20;6.77;;;2.00;99.90;;;;;;5057294;28;20176;-69
2022/03/04 05:34:46;;;;;;;8.97;5.53;;;2.00;99.90;;;;;;5077442;28;20221;-77
2022/03/04 05:37:14;;;;;;;8.37;5.93;;;2.00;99.90;;;;;;5072637;28;20180;-78
2022/03/04 05:39:39;;;;;;;8.13;5.20;;;1.90;99.90;;;;;;5075303;28;20199;-77
2022/03/04 05:42:05;;;;;;;7.37;4.83;;;1.90;99.90;;;;;;5113271;28;20172;-75
2022/03/04 05:44:31;;;;;;;9.50;6.77;;;1.90;99.90;;;;;;5081836;28;20263;-75
2022/03/04 05:46:56;;;;;;;9.37;6.40;;;1.90;99.90;;;;;;5108946;27;20346;-78
2022/03/04 05:49:24;;;;;;;10.47;6.20;;;1.90;99.90;;;;;;5081023;28;20179;-77
2022/03/04 05:51:50;;;;;;;8.40;5.80;;;1.90;99.90;;;;;;5096838;28;20186;-78
2022/03/04 05:54:16;;;;;;;6.90;5.27;;;1.80;99.90;;;;;;5088869;28;20215;-78
2022/03/04 05:56:42;;;;;;;6.67;5.03;;;1.80;99.90;;;;;;5079063;28;20191;-78
2022/03/04 05:59:07;;;;;;;6.40;4.97;;;1.80;99.90;;;;;;5097491;28;20208;-77
2022/03/04 06:01:33;;;;;;;7.30;5.00;;;1.80;99.90;;;;;;5076805;28;20202;-78
2022/03/04 06:03:58;;;;;;;6.90;5.20;;;1.80;99.90;;;;;;5101979;27;20187;-76
2022/03/04 06:06:25;;;;;;;6.40;4.70;;;1.80;99.90;;;;;;5114793;27;20176;-76
2022/03/04 06:08:51;;;;;;;7.17;4.90;;;1.80;99.90;;;;;;5123287;27;20469;-75
2022/03/04 06:11:19;;;;;;;6.67;4.57;;;1.80;99.90;;;;;;5078169;28;20211;-77
2022/03/04 06:13:45;;;;;;;8.00;5.60;;;1.70;99.90;;;;;;5102097;28;20191;-74
2022/03/04 06:16:11;;;;;;;9.47;5.93;;;1.70;99.90;;;;;;5080773;28;20279;-77
2022/03/04 06:18:37;;;;;;;8.60;5.67;;;1.70;99.90;;;;;;5081129;28;20240;-79
2022/03/04 06:21:05;;;;;;;7.43;5.23;;;1.70;99.90;;;;;;5115566;27;20172;-77
2022/03/04 06:23:33;;;;;;;6.93;5.07;;;1.70;99.90;;;;;;5098738;28;20255;-77
2022/03/04 06:26:01;;;;;;;6.83;4.97;;;1.70;99.90;;;;;;5075627;28;20197;-75
2022/03/04 06:28:27;;;;;;;7.80;4.87;;;1.70;99.90;;;;;;5079458;28;20238;-77
2022/03/04 06:30:58;;;;;;;8.43;5.20;;;1.70;99.90;;;;;;5113720;27;20180;-75
2022/03/04 06:33:35;;;;;;;8.53;5.23;;;1.70;99.90;;;;;;5106730;27;20229;-77
2022/03/04 06:36:15;;;;;;;7.37;5.30;;;1.70;99.90;;;;;;5085609;28;20186;-78
2022/03/04 06:38:47;;;;;;;7.53;4.87;;;1.70;99.90;;;;;;5092746;28;20206;-75
2022/03/04 06:41:14;;;;;;;9.80;5.33;;;1.70;99.90;;;;;;5069265;28;20246;-76
2022/03/04 06:43:41;;;;;;;6.90;5.10;;;1.70;99.90;;;;;;5104951;28;20226;-78
2022/03/04 06:46:09;;;;;;;8.27;5.90;;;1.70;99.90;;;;;;5081397;28;20180;-77
2022/03/04 06:48:35;;;;;;;6.73;5.13;;;1.70;99.90;;;;;;5115178;27;20208;-78
2022/03/04 06:51:05;;;;;;;8.00;5.30;;;1.70;99.90;;;;;;5100634;27;20206;-79
2022/03/04 06:53:34;;;;;;;7.73;5.37;;;1.80;99.90;;;;;;5123943;27;20261;-78
2022/03/04 06:56:00;;;;;;;8.93;6.17;;;1.80;99.90;;;;;;5084749;28;20260;-76
2022/03/04 06:58:28;;;;;;;8.10;5.60;;;1.80;99.90;;;;;;5110691;28;20424;-78
2022/03/04 07:00:55;;;;;;;7.57;5.47;;;1.90;99.90;;;;;;5079417;28;20164;-76
2022/03/04 07:03:20;;;;;;;7.87;5.77;;;1.90;99.90;;;;;;5087443;28;20399;-77
2022/03/04 07:05:46;;;;;;;11.17;7.40;;;1.90;99.90;;;;;;5124439;27;20176;-79
2022/03/04 07:08:12;;;;;;;11.73;7.40;;;2.00;99.90;;;;;;5097024;28;20186;-77
2022/03/04 07:10:43;;;;;;;10.37;6.60;;;2.10;99.90;;;;;;5121550;27;20264;-78
2022/03/04 07:13:11;;;;;;;10.43;6.47;;;2.10;99.90;;;;;;5116664;27;20175;-72
2022/03/04 07:15:41;;;;;;;8.50;6.40;;;2.20;99.90;;;;;;5088862;28;20180;-76
2022/03/04 07:18:07;;;;;;;9.37;6.47;;;2.20;99.90;;;;;;5091912;28;20200;-77
2022/03/04 07:20:32;;;;;;;8.90;6.47;;;2.30;99.90;;;;;;5111534;27;20215;-75
2022/03/04 07:22:58;;;;;;;9.27;6.50;;;2.30;99.90;;;;;;5078148;28;20226;-78
2022/03/04 07:25:24;;;;;;;7.87;6.10;;;2.40;99.90;;;;;;5120115;27;20188;-78
2022/03/04 07:27:52;;;;;;;9.87;6.83;;;2.40;99.90;;;;;;5092038;28;20247;-75
2022/03/04 07:30:21;;;;;;;9.07;6.20;;;2.50;99.90;;;;;;5077193;28;20183;-82
2022/03/04 07:32:49;;;;;;;9.37;6.53;;;2.50;99.90;;;;;;5075111;28;20176;-76
2022/03/04 07:35:15;;;;;;;12.63;8.13;;;2.60;99.90;;;;;;5073242;28;20265;-85
2022/03/04 07:37:42;;;;;;;10.50;7.40;;;2.70;99.90;;;;;;5119573;27;20171;-74
2022/03/04 07:40:13;;;;;;;11.00;7.63;;;2.70;99.90;;;;;;5080461;28;20195;-78
2022/03/04 07:42:39;;;;;;;12.23;7.80;;;2.80;99.90;;;;;;5084216;28;20270;-83
2022/03/04 07:45:08;;;;;;;14.57;7.97;;;2.80;99.90;;;;;;5093302;28;20187;-78
2022/03/04 07:47:37;;;;;;;11.90;8.53;;;2.90;99.90;;;;;;5122321;27;20175;-82
2022/03/04 07:50:07;;;;;;;11.57;8.10;;;2.90;99.90;;;;;;5089485;28;20180;-83
2022/03/04 07:52:36;;;;;;;10.70;7.50;;;3.00;99.90;;;;;;5121308;27;20196;-76
2022/03/04 07:55:04;;;;;;;9.13;7.30;;;3.00;99.90;;;;;;5091493;28;20278;-74
2022/03/04 07:57:29;;;;;;;10.17;7.10;;;3.10;99.90;;;;;;5084520;28;20180;-76
2022/03/04 07:59:55;;;;;;;10.03;7.10;;;3.10;99.90;;;;;;5090887;28;20214;-77
2022/03/04 08:02:23;;;;;;;9.83;6.80;;;3.20;99.90;;;;;;5080869;28;20211;-80
2022/03/04 08:04:49;;;;;;;8.63;6.60;;;3.20;99.90;;;;;;5080775;28;20203;-77
2022/03/04 08:07:15;;;;;;;8.20;6.03;;;3.40;99.90;;;;;;5108179;28;20168;-73
2022/03/04 08:09:43;;;;;;;10.50;6.90;;;3.40;99.90;;;;;;5124095;27;20180;-78
2022/03/04 08:12:09;;;;;;;10.77;8.10;;;3.50;99.90;;;;;;5119435;27;20204;-79
2022/03/04 08:14:36;;;;;;;11.13;7.53;;;3.50;99.90;;;;;;5084690;28;20188;-78
2022/03/04 08:17:01;;;;;;;10.90;7.37;;;3.60;99.90;;;;;;5089334;28;20189;-82
2022/03/04 08:19:27;;;;;;;10.37;7.23;;;3.70;99.90;;;;;;5104907;27;20200;-74
2022/03/04 08:21:55;;;;;;;9.50;6.87;;;3.80;99.90;;;;;;5118556;27;20171;-80
2022/03/04 08:24:21;;;;;;;11.37;8.07;;;3.90;99.90;;;;;;5078287;28;20177;-80
2022/03/04 08:26:46;;;;;;;12.13;8.93;;;3.90;99.90;;;;;;5114668;27;20173;-79
2022/03/04 08:29:14;;;;;;;10.87;7.80;;;4.00;99.90;;;;;;5111631;27;20461;-79
2022/03/04 08:31:40;;;;;;;9.87;7.23;;;4.10;99.90;;;;;;5080825;28;20208;-84
2022/03/04 08:34:07;;;;;;;10.70;8.20;;;4.20;99.90;;;;;;5115421;27;20199;-79
2022/03/04 08:36:36;;;;;;;12.20;7.63;;;4.30;99.90;;;;;;5121449;27;20260;-82
2022/03/04 08:39:05;;;;;;;12.73;8.57;;;4.30;99.90;;;;;;5106632;27;20219;-81
2022/03/04 08:41:34;;;;;;;12.17;8.60;;;4.40;99.90;;;;;;5075190;28;20176;-80
2022/03/04 08:44:03;;;;;;;12.53;8.63;;;4.50;99.90;;;;;;5080607;28;20220;-83
2022/03/04 08:46:28;;;;;;;11.27;8.50;;;4.60;99.90;;;;;;5109590;27;20184;-77
2022/03/04 08:48:54;;;;;;;10.67;8.10;;;4.60;99.90;;;;;;5076633;28;20195;-82
2022/03/04 08:51:26;;;;;;;11.23;8.53;;;4.70;99.90;;;;;;5074745;28;20212;-80
2022/03/04 08:53:58;;;;;;;15.03;8.90;;;4.80;99.90;;;;;;5105570;27;20185;-83
2022/03/04 08:56:26;;;;;;;11.80;8.77;;;4.90;99.90;;;;;;5075364;28;20219;-84
2022/03/04 08:58:53;;;;;;;12.50;9.10;;;5.00;99.90;;;;;;5064236;28;20216;-83
2022/03/04 09:01:21;;;;;;;13.43;10.03;;;5.00;99.90;;;;;;5073912;28;20280;-85
2022/03/04 09:03:51;;;;;;;12.80;9.10;;;5.10;99.90;;;;;;5095311;27;20334;-81
2022/03/04 09:06:17;;;;;;;12.40;8.97;;;5.20;99.90;;;;;;5077654;28;20187;-85
2022/03/04 09:08:42;;;;;;;11.67;8.57;;;5.30;99.90;;;;;;5116701;27;20192;-80
2022/03/04 09:11:08;;;;;;;12.93;8.57;;;5.40;99.90;;;;;;5075288;28;20211;-79
2022/03/04 09:13:34;;;;;;;13.20;9.77;;;5.50;99.90;;;;;;5081153;28;20192;-74
2022/03/04 09:16:01;;;;;;;12.97;9.30;;;5.60;99.90;;;;;;5077973;28;20184;-75
2022/03/04 09:18:27;;;;;;;10.70;8.20;;;5.70;99.90;;;;;;5109893;27;20176;-74
2022/03/04 09:20:53;;;;;;;15.57;9.87;;;5.80;99.90;;;;;;5078714;28;20176;-81
2022/03/04 09:23:21;;;;;;;13.37;9.53;;;5.90;99.90;;;;;;5110325;28;20399;-78
2022/03/04 09:25:48;;;;;;;12.00;8.90;;;6.00;99.90;;;;;;5070799;28;20207;-82
2022/03/04 09:28:15;;;;;;;12.23;9.63;;;6.00;99.90;;;;;;5081250;28;20183;-78
2022/03/04 09:30:42;;;;;;;12.10;9.20;;;6.10;99.90;;;;;;5112970;28;20230;-84
2022/03/04 09:33:08;;;;;;;12.63;9.60;;;6.20;99.90;;;;;;5105451;28;20240;-81
2022/03/04 09:35:34;;;;;;;13.27;9.43;;;6.30;99.90;;;;;;5107185;28;20195;-76
2022/03/04 09:38:01;;;;;;;15.07;9.23;;;6.40;99.90;;;;;;5117955;28;20191;-73
2022/03/04 09:40:30;;;;;;;11.70;9.03;;;6.60;99.90;;;;;;5110613;28;20207;-83
2022/03/04 09:42:57;;;;;;;13.73;8.93;;;7.10;99.90;;;;;;5082573;28;20206;-82
2022/03/04 09:45:27;;;;;;;12.73;8.80;;;7.90;99.90;;;;;;5085259;28;20179;-82
2022/03/04 09:47:55;;;;;;;14.80;10.13;;;8.70;99.90;;;;;;5125130;28;20184;-81
2022/03/04 09:50:23;;;;;;;12.57;10.07;;;9.60;99.90;;;;;;5109470;28;20234;-74
2022/03/04 09:52:50;;;;;;;12.50;9.50;;;10.30;99.10;;;;;;5111822;28;20430;-71
2022/03/04 09:55:18;;;;;;;12.70;10.23;;;10.90;98.70;;;;;;5107306;28;20240;-70
2022/03/04 09:57:43;;;;;;;13.37;9.83;;;11.50;97.70;;;;;;5077686;28;20262;-68
2022/03/04 10:00:12;;;;;;;15.83;10.30;;;12.00;96.40;;;;;;5085057;28;20622;-75
2022/03/04 10:02:40;;;;;;;13.03;9.83;;;12.50;94.00;;;;;;5107294;28;20207;-76
2022/03/04 10:05:06;;;;;;;14.53;10.63;;;12.90;94.60;;;;;;5107694;28;20244;-77
2022/03/04 10:07:48;;;;;;;13.20;9.65;;;13.20;93.00;;;;;;5074808;28;20175;-72
2022/03/04 10:10:19;;;;;;;13.27;10.05;;;13.60;91.10;;;;;;5082722;28;20171;-75
2022/03/04 10:12:50;;;;;;;12.52;9.90;;;13.80;90.20;;;;;;5077654;28;20191;-75
2022/03/04 10:15:16;;;;;;;14.18;11.05;;;14.00;88.90;;;;;;5070998;28;20215;-88
2022/03/04 10:18:01;;;;;;;13.63;10.70;;;14.10;85.60;;;;;;5112123;28;20183;-78
2022/03/04 10:20:34;;;;;;;13.57;10.85;;;14.20;80.40;;;;;;5072913;28;20264;-79
2022/03/04 10:23:26;;;;;;;13.38;10.98;;;14.30;81.20;;;;;;5113589;27;20187;-74
2022/03/04 10:25:59;;;;;;;15.23;11.75;;;14.30;79.50;;;;;;5115974;27;20171;-84
2022/03/04 10:28:27;;;;;;;12.85;10.73;;;14.40;80.80;;;;;;5069739;28;20172;-81
2022/03/04 10:30:54;;;;;;;15.23;12.05;;;14.30;80.70;;;;;;5110557;27;20249;-77
2022/03/04 10:33:28;;;;;;;16.48;12.15;;;14.40;77.80;;;;;;5108736;27;20180;-81
2022/03/04 10:36:07;;;;;;;14.93;11.50;;;14.40;73.10;;;;;;5116894;27;20191;-67
2022/03/04 10:38:36;;;;;;;14.13;10.45;;;14.40;71.40;;;;;;5084474;28;20192;-81
2022/03/04 10:41:29;;;;;;;12.13;9.80;;;14.40;76.30;;;;;;5112405;27;20207;-72
2022/03/04 10:43:56;;;;;;;13.30;10.52;;;14.50;74.70;;;;;;5097984;28;20171;-77
2022/03/04 10:46:22;;;;;;;13.30;11.02;;;14.50;79.60;;;;;;5101264;28;20173;-74
2022/03/04 10:48:55;;;;;;;12.82;10.40;;;14.60;77.30;;;;;;5107214;27;20184;-77
2022/03/04 10:51:39;;;;;;;14.57;10.70;;;14.60;75.50;;;;;;5074122;28;20183;-83
2022/03/04 10:54:19;;;;;;;11.23;9.25;;;14.60;73.00;;;;;;5079160;28;20295;-79
2022/03/04 10:56:55;;;;;;;11.43;9.18;;;14.70;77.80;;;;;;5088036;28;20192;-79
2022/03/04 10:59:24;;;;;;;12.82;9.80;;;14.70;78.00;;;;;;5090939;28;20229;-76
2022/03/04 11:01:56;;;;;;;13.15;9.93;;;14.80;82.50;;;;;;5114903;27;20210;-81
2022/03/04 11:04:22;;;;;;;13.23;11.32;;;14.80;78.80;;;;;;5085586;28;20179;-82
2022/03/04 11:06:49;;;;;;;14.60;11.13;;;14.80;78.90;;;;;;5111754;27;20204;-80
2022/03/04 11:09:24;;;;;;;17.30;11.93;;;14.80;78.90;;;;;;5081659;28;20194;-83
2022/03/04 11:11:56;;;;;;;14.25;11.23;;;14.80;72.40;;;;;;5111338;27;20182;-78
2022/03/04 11:14:22;;;;;;;12.00;9.35;;;14.80;75.10;;;;;;5124775;27;20191;-76
2022/03/04 11:16:49;;;;;;;13.48;10.55;;;14.80;80.30;;;;;;5088962;28;20191;-77
2022/03/04 11:19:15;;;;;;;15.32;10.55;;;14.80;79.40;;;;;;5114109;27;20207;-80
2022/03/04 11:21:41;;;;;;;14.13;10.95;;;14.80;80.90;;;;;;5089626;28;20210;-77
2022/03/04 11:24:12;;;;;;;12.85;10.98;;;14.80;78.60;;;;;;5074496;28;20173;-81
2022/03/04 11:26:42;;;;;;;14.15;10.63;;;14.90;75.40;;;;;;5106408;27;20196;-84
2022/03/04 11:29:32;;;;;;;12.70;9.70;;;14.90;77.40;;;;;;5089016;28;20183;-78
2022/03/04 11:31:58;;;;;;;12.32;10.35;;;14.90;76.10;;;;;;5076005;28;20214;-79
2022/03/04 11:34:39;;;;;;;13.13;10.38;;;14.90;79.40;;;;;;5082326;28;20247;-84
2022/03/04 11:37:20;;;;;;;15.57;12.15;;;15.00;75.40;;;;;;5085255;28;20194;-82
2022/03/04 11:40:02;;;;;;;15.10;11.43;;;14.90;75.90;;;;;;5108451;27;20212;-78
2022/03/04 11:42:42;;;;;;;14.77;11.65;;;14.80;75.20;;;;;;5088545;28;20352;-84
2022/03/04 11:45:09;;;;;;;13.40;10.93;;;14.60;71.10;;;;;;5117215;27;20214;-83
2022/03/04 11:47:45;;;;;;;12.65;10.02;;;14.60;75.80;;;;;;5086680;28;20194;-79
2022/03/04 11:50:32;;;;;;;12.82;10.30;;;14.60;73.70;;;;;;5108446;28;20172;-83
2022/03/04 11:53:16;;;;;;;12.30;9.63;;;14.60;67.50;;;;;;5088171;28;20266;-78
2022/03/04 11:56:10;;;;;;;12.60;10.40;;;14.70;72.20;;;;;;5079241;28;20179;-81
2022/03/04 11:58:56;;;;;;;11.65;9.40;;;14.80;70.50;;;;;;5083625;28;20196;-79
2022/03/04 12:01:27;;;;;;;13.43;10.70;;;14.80;65.10;;;;;;5099179;28;20199;-79
2022/03/04 12:04:11;;;;;;;12.13;9.98;;;14.90;71.30;;;;;;5084956;28;20256;-74
2022/03/04 12:06:43;;;;;;;10.50;8.77;;;14.90;69.90;;;;;;5114380;27;20175;-76
2022/03/04 12:09:26;;;;;;;10.98;9.35;;;15.00;73.90;;;;;;5083194;28;20195;-76
2022/03/04 12:12:16;;;;;;;10.20;8.43;;;15.10;71.50;;;;;;5090467;28;20290;-76
2022/03/04 12:14:45;;;;;;;12.05;9.35;;;15.20;70.40;;;;;;5117495;27;20210;-78
2022/03/04 12:17:11;;;;;;;14.00;10.80;;;15.30;74.80;;;;;;5079422;28;20191;-80
2022/03/04 12:19:37;;;;;;;13.52;10.65;;;15.50;74.10;;;;;;5081186;28;20253;-81
2022/03/04 12:22:04;;;;;;;14.65;10.27;;;15.50;72.10;;;;;;5067139;28;20180;-85
2022/03/04 12:24:35;;;;;;;13.70;9.90;;;15.60;73.60;;;;;;5103212;27;20204;-80
2022/03/04 12:27:02;;;;;;;13.05;10.35;;;15.60;71.60;;;;;;5081888;28;20172;-79
2022/03/04 12:29:44;;;;;;;13.02;10.60;;;15.70;73.80;;;;;;5110317;27;20184;-82
2022/03/04 12:32:12;;;;;;;12.02;9.90;;;15.80;67.40;;;;;;5109049;27;20188;-77
2022/03/04 12:34:47;;;;;;;13.20;9.48;;;15.90;73.00;;;;;;5082902;28;20188;-72
2022/03/04 12:37:14;;;;;;;11.77;9.75;;;16.00;69.10;;;;;;5120141;27;20195;-82
2022/03/04 12:39:50;;;;;;;11.70;9.43;;;16.10;73.30;;;;;;5076855;28;20207;-79
2022/03/04 12:42:20;;;;;;;13.38;9.65;;;16.20;73.60;;;;;;5091894;28;20203;-81
2022/03/04 12:44:46;;;;;;;14.15;10.18;;;16.30;71.00;;;;;;5114260;27;20195;-85
2022/03/04 12:47:13;;;;;;;11.82;9.73;;;16.40;71.20;;;;;;5118819;27;20191;-81
2022/03/04 12:49:42;;;;;;;11.07;8.57;;;16.50;69.80;;;;;;5076217;28;20241;-76
2022/03/04 12:52:07;;;;;;;11.60;9.60;;;16.50;69.70;;;;;;5086054;28;20261;-71
2022/03/04 12:54:33;;;;;;;12.55;9.50;;;16.50;69.50;;;;;;5076468;28;20398;-68